Time;durP1;ratioP1;P1;durP2;ratioP2;P2;SDS_P1;SDS_P2;PMS_P1;PMS_P2;Temp;Humidity;BMP_temperature;BMP_pressure;BME280_temperature;BME280_humidity;BME280_pressure;Samples;Min_cycle;Max_cycle;Signal;HPM_P1;HPM_P2
2021/05/02 00:01:26;;;;;;;1.15;0.63;;;;;;;;;;5052050;28;20037;-77
2021/05/02 00:03:52;;;;;;;1.20;0.70;;;;;;;;;;5052009;28;20037;-77
2021/05/02 00:06:18;;;;;;;1.60;1.00;;;;;;;;;;5051960;28;20502;-78
2021/05/02 00:08:44;;;;;;;1.55;1.45;;;;;;;;;;5051821;28;20117;-77
2021/05/02 00:11:11;;;;;;;0.65;0.65;;;;;;;;;;5051960;28;20044;-78
2021/05/02 00:13:38;;;;;;;2.30;1.20;;;;;;;;;;5051769;28;20108;-77
2021/05/02 00:16:05;;;;;;;1.30;0.95;;;;;;;;;;5052226;28;20064;-77
2021/05/02 00:18:32;;;;;;;1.35;0.70;;;;;;;;;;5052281;28;20119;-77
2021/05/02 00:20:58;;;;;;;0.95;0.80;;;;;;;;;;5051368;28;20045;-77
2021/05/02 00:23:25;;;;;;;1.42;0.85;;;;;;;;;;5052133;28;20056;-77
2021/05/02 00:25:51;;;;;;;0.95;0.80;;;;;;;;;;5051569;28;20043;-77
2021/05/02 00:28:18;;;;;;;0.73;0.73;;;;;;;;;;5052219;28;20025;-78
2021/05/02 00:30:44;;;;;;;0.70;0.70;;;;;;;;;;5051050;28;20052;-77
2021/05/02 00:33:10;;;;;;;1.00;0.80;;;;;;;;;;5051936;28;20496;-78
2021/05/02 00:35:37;;;;;;;1.38;1.20;;;;;;;;;;5051351;28;20025;-77
2021/05/02 00:38:03;;;;;;;0.60;0.60;;;;;;;;;;5051788;28;20445;-77
2021/05/02 00:40:37;;;;;;;1.15;1.05;;;;;;;;;;5051732;28;20369;-78
2021/05/02 00:43:07;;;;;;;0.30;0.30;;;;;;;;;;5051696;28;20029;-77
2021/05/02 00:45:48;;;;;;;2.40;1.25;;;;;;;;;;5051636;28;20155;-77
2021/05/02 00:48:20;;;;;;;0.93;0.70;;;;;;;;;;5051969;28;20025;-77
2021/05/02 00:50:49;;;;;;;0.93;0.80;;;;;;;;;;5050825;28;20534;-77
2021/05/02 00:53:41;;;;;;;0.85;0.85;;;;;;;;;;5051504;28;20170;-77
2021/05/02 00:56:18;;;;;;;1.83;1.17;;;;;;;;;;5035803;28;20545;-77
2021/05/02 00:59:01;;;;;;;0.80;0.80;;;;;;;;;;5050715;28;20511;-77
2021/05/02 01:01:30;;;;;;;0.68;0.68;;;;;;;;;;5050839;28;20044;-77
2021/05/02 01:03:59;;;;;;;0.75;0.75;;;;;;;;;;5050983;28;20693;-78
2021/05/02 01:06:25;;;;;;;1.98;0.90;;;;;;;;;;5050505;28;20556;-78
2021/05/02 01:08:56;;;;;;;1.30;0.88;;;;;;;;;;5050799;28;20060;-78
2021/05/02 01:11:22;;;;;;;0.57;0.50;;;;;;;;;;5051197;28;20112;-78
2021/05/02 01:13:54;;;;;;;0.80;0.77;;;;;;;;;;5050370;28;20048;-78
2021/05/02 01:16:20;;;;;;;1.60;0.68;;;;;;;;;;5051224;28;20112;-77
2021/05/02 01:18:48;;;;;;;0.43;0.43;;;;;;;;;;5050688;28;20501;-78
2021/05/02 01:21:15;;;;;;;1.08;0.82;;;;;;;;;;5050342;28;20037;-77
2021/05/02 01:23:41;;;;;;;4.72;1.35;;;;;;;;;;5050459;28;20048;-77
2021/05/02 01:26:07;;;;;;;0.70;0.60;;;;;;;;;;5051327;28;20100;-77
2021/05/02 01:28:35;;;;;;;0.73;0.73;;;;;;;;;;5050947;28;20486;-77
2021/05/02 01:31:01;;;;;;;0.77;0.63;;;;;;;;;;5050305;28;20029;-77
2021/05/02 01:33:27;;;;;;;1.77;0.93;;;;;;;;;;5050926;28;20103;-77
2021/05/02 01:35:55;;;;;;;0.70;0.70;;;;;;;;;;5050135;28;20101;-77
2021/05/02 01:38:23;;;;;;;0.70;0.70;;;;;;;;;;5050526;28;20399;-77
2021/05/02 01:40:49;;;;;;;2.13;1.27;;;;;;;;;;5050129;28;20029;-77
2021/05/02 01:43:15;;;;;;;0.80;0.70;;;;;;;;;;5050808;28;20055;-78
2021/05/02 01:45:42;;;;;;;1.70;1.02;;;;;;;;;;5050506;28;20036;-77
2021/05/02 01:48:08;;;;;;;0.65;0.65;;;;;;;;;;5050581;28;20089;-78
2021/05/02 01:50:54;;;;;;;1.08;0.95;;;;;;;;;;5050173;28;20490;-77
2021/05/02 01:53:20;;;;;;;0.43;0.43;;;;;;;;;;5050339;28;20116;-77
2021/05/02 01:55:47;;;;;;;0.65;0.65;;;;;;;;;;5050041;28;20040;-77
2021/05/02 01:58:13;;;;;;;0.88;0.77;;;;;;;;;;5050262;28;20110;-77
2021/05/02 02:00:50;;;;;;;1.55;0.85;;;;;;;;;;5049784;28;20510;-77
2021/05/02 02:03:16;;;;;;;1.02;0.60;;;;;;;;;;5049972;28;20056;-78
2021/05/02 02:05:42;;;;;;;0.50;0.50;;;;;;;;;;5049480;28;20025;-77
2021/05/02 02:08:09;;;;;;;0.60;0.60;;;;;;;;;;5050264;28;20021;-77
2021/05/02 02:10:36;;;;;;;0.60;0.60;;;;;;;;;;5050012;28;20101;-77
2021/05/02 02:13:02;;;;;;;1.42;0.63;;;;;;;;;;5050043;28;20036;-77
2021/05/02 02:15:29;;;;;;;2.08;1.30;;;;;;;;;;5050408;28;20032;-77
2021/05/02 02:17:55;;;;;;;3.70;1.40;;;;;;;;;;5050067;28;20029;-77
2021/05/02 02:20:22;;;;;;;1.45;0.95;;;;;;;;;;5049699;28;20411;-78
2021/05/02 02:22:50;;;;;;;0.88;0.55;;;;;;;;;;5049606;28;20057;-77
2021/05/02 02:25:16;;;;;;;1.00;0.73;;;;;;;;;;5050416;28;20123;-77
2021/05/02 02:27:43;;;;;;;0.60;0.60;;;;;;;;;;5050156;28;20029;-77
2021/05/02 02:30:10;;;;;;;1.08;0.90;;;;;;;;;;5049942;28;20403;-77
2021/05/02 02:32:43;;;;;;;1.77;1.17;;;;;;;;;;5049582;28;20357;-77
2021/05/02 02:35:10;;;;;;;0.90;0.65;;;;;;;;;;5050165;28;20032;-77
2021/05/02 02:37:36;;;;;;;2.83;1.10;;;;;;;;;;5049913;28;20033;-77
2021/05/02 02:40:04;;;;;;;0.52;0.52;;;;;;;;;;5049881;28;20483;-77
2021/05/02 02:42:31;;;;;;;1.38;0.80;;;;;;;;;;5050209;28;20130;-77
2021/05/02 02:44:58;;;;;;;0.77;0.77;;;;;;;;;;5049576;28;20034;-77
2021/05/02 02:47:29;;;;;;;1.30;0.77;;;;;;;;;;5049927;28;20025;-77
2021/05/02 02:49:59;;;;;;;0.70;0.70;;;;;;;;;;5049144;28;20514;-78
2021/05/02 02:52:26;;;;;;;0.65;0.60;;;;;;;;;;5049696;28;20486;-77
2021/05/02 02:55:13;;;;;;;1.42;1.05;;;;;;;;;;5049462;28;20035;-77
2021/05/02 02:57:59;;;;;;;1.90;0.77;;;;;;;;;;5048939;28;20064;-77
2021/05/02 03:00:27;;;;;;;0.90;0.90;;;;;;;;;;5049136;28;20025;-77
2021/05/02 03:03:02;;;;;;;2.50;1.00;;;;;;;;;;5049640;28;20805;-77
2021/05/02 03:05:28;;;;;;;1.35;1.25;;;;;;;;;;5049574;28;20079;-77
2021/05/02 03:07:56;;;;;;;1.02;0.93;;;;;;;;;;5049230;28;20029;-77
2021/05/02 03:10:24;;;;;;;1.08;0.70;;;;;;;;;;5049346;28;20403;-78
2021/05/02 03:12:51;;;;;;;0.85;0.55;;;;;;;;;;5049321;28;20391;-77
2021/05/02 03:15:17;;;;;;;0.98;0.88;;;;;;;;;;5049819;28;20112;-77
2021/05/02 03:17:47;;;;;;;0.68;0.68;;;;;;;;;;5052426;28;20558;-77
2021/05/02 03:20:14;;;;;;;0.65;0.60;;;;;;;;;;5052927;28;20394;-77
2021/05/02 03:23:12;;;;;;;2.88;1.10;;;;;;;;;;5053212;28;20109;-78
2021/05/02 03:25:40;;;;;;;0.80;0.70;;;;;;;;;;5029892;28;20037;-77
2021/05/02 03:28:07;;;;;;;1.05;0.80;;;;;;;;;;5053312;28;20021;-77
2021/05/02 03:30:34;;;;;;;0.70;0.70;;;;;;;;;;5052942;28;20437;-78
2021/05/02 03:33:02;;;;;;;0.60;0.60;;;;;;;;;;5052759;28;20562;-78
2021/05/02 03:35:33;;;;;;;1.20;1.05;;;;;;;;;;5052855;28;20021;-77
2021/05/02 03:38:18;;;;;;;2.15;0.77;;;;;;;;;;5052484;28;20041;-77
2021/05/02 03:40:44;;;;;;;1.75;0.88;;;;;;;;;;5052117;28;20032;-77
2021/05/02 03:43:11;;;;;;;1.27;1.20;;;;;;;;;;5052766;28;20033;-77
2021/05/02 03:45:37;;;;;;;1.10;1.00;;;;;;;;;;5052598;28;20495;-78
2021/05/02 03:48:03;;;;;;;0.57;0.57;;;;;;;;;;5052737;28;20033;-77
2021/05/02 03:50:29;;;;;;;0.80;0.80;;;;;;;;;;5052440;28;20251;-78
2021/05/02 03:52:55;;;;;;;0.75;0.65;;;;;;;;;;5052067;28;20025;-77
2021/05/02 03:55:21;;;;;;;0.70;0.63;;;;;;;;;;5052957;28;20104;-78
2021/05/02 03:57:47;;;;;;;0.85;0.70;;;;;;;;;;5051708;28;20045;-77
2021/05/02 04:00:14;;;;;;;0.57;0.50;;;;;;;;;;5052214;28;20037;-77
2021/05/02 04:02:40;;;;;;;2.40;1.25;;;;;;;;;;5052145;28;20052;-77
2021/05/02 04:05:06;;;;;;;0.47;0.47;;;;;;;;;;5052229;28;20082;-77
2021/05/02 04:07:32;;;;;;;0.63;0.60;;;;;;;;;;5051903;28;20065;-77
2021/05/02 04:09:58;;;;;;;1.25;0.75;;;;;;;;;;5051876;28;20025;-78
2021/05/02 04:12:24;;;;;;;0.70;0.70;;;;;;;;;;5052287;28;20059;-77
2021/05/02 04:14:50;;;;;;;1.35;1.23;;;;;;;;;;5051654;28;20021;-78
2021/05/02 04:17:17;;;;;;;0.85;0.82;;;;;;;;;;5052285;28;20021;-78
2021/05/02 04:19:44;;;;;;;0.73;0.73;;;;;;;;;;5051436;28;20056;-77
2021/05/02 04:22:12;;;;;;;0.70;0.60;;;;;;;;;;5051981;28;20045;-77
2021/05/02 04:24:38;;;;;;;0.65;0.60;;;;;;;;;;5051761;28;20083;-77
2021/05/02 04:27:04;;;;;;;0.60;0.60;;;;;;;;;;5051440;28;20032;-77
2021/05/02 04:29:32;;;;;;;0.75;0.75;;;;;;;;;;5051774;28;20029;-78
2021/05/02 04:31:58;;;;;;;1.27;0.60;;;;;;;;;;5051538;28;20025;-77
2021/05/02 04:34:25;;;;;;;0.85;0.45;;;;;;;;;;5051301;28;20036;-78
2021/05/02 04:36:51;;;;;;;0.70;0.70;;;;;;;;;;5051150;28;20129;-77
2021/05/02 04:39:18;;;;;;;0.50;0.40;;;;;;;;;;5051752;28;20052;-77
2021/05/02 04:41:44;;;;;;;1.17;0.93;;;;;;;;;;5051537;28;20032;-77
2021/05/02 04:44:11;;;;;;;0.50;0.50;;;;;;;;;;5051741;28;20033;-77
2021/05/02 04:46:38;;;;;;;0.60;0.60;;;;;;;;;;5051624;28;20472;-77
2021/05/02 04:49:06;;;;;;;1.45;0.93;;;;;;;;;;5049318;28;20021;-78
2021/05/02 04:51:32;;;;;;;0.47;0.40;;;;;;;;;;5047690;28;20456;-77
2021/05/02 04:53:58;;;;;;;1.42;0.88;;;;;;;;;;5051030;28;20029;-78
2021/05/02 04:56:24;;;;;;;0.68;0.50;;;;;;;;;;5051333;28;20098;-76
2021/05/02 04:58:50;;;;;;;0.47;0.47;;;;;;;;;;5050896;28;20033;-77
2021/05/02 05:01:16;;;;;;;0.30;0.30;;;;;;;;;;5051010;28;20033;-77
2021/05/02 05:03:44;;;;;;;0.50;0.50;;;;;;;;;;5050785;28;20052;-77
2021/05/02 05:06:10;;;;;;;0.68;0.63;;;;;;;;;;5050974;28;20028;-77
2021/05/02 05:08:36;;;;;;;0.93;0.80;;;;;;;;;;5050978;28;20056;-77
2021/05/02 05:11:02;;;;;;;0.82;0.70;;;;;;;;;;5050919;28;20513;-77
2021/05/02 05:13:28;;;;;;;0.63;0.57;;;;;;;;;;5050917;28;20029;-77
2021/05/02 05:15:58;;;;;;;0.52;0.50;;;;;;;;;;5051006;28;20029;-77
2021/05/02 05:18:24;;;;;;;1.98;0.40;;;;;;;;;;5051043;28;20025;-77
2021/05/02 05:20:51;;;;;;;0.90;0.57;;;;;;;;;;5050261;28;20082;-77
2021/05/02 05:23:17;;;;;;;0.73;0.73;;;;;;;;;;5050883;28;20535;-77
2021/05/02 05:25:43;;;;;;;0.98;0.85;;;;;;;;;;5050552;28;20033;-77
2021/05/02 05:28:09;;;;;;;0.90;0.90;;;;;;;;;;5050856;28;20025;-77
2021/05/02 05:30:35;;;;;;;0.40;0.40;;;;;;;;;;5050768;28;20467;-77
2021/05/02 05:33:05;;;;;;;1.25;1.15;;;;;;;;;;5050653;28;20395;-78
2021/05/02 05:35:31;;;;;;;0.43;0.43;;;;;;;;;;5050458;28;20039;-77
2021/05/02 05:37:57;;;;;;;0.70;0.45;;;;;;;;;;5049937;28;20087;-77
2021/05/02 05:40:25;;;;;;;0.95;0.50;;;;;;;;;;5049871;28;20511;-77
2021/05/02 05:42:51;;;;;;;0.82;0.82;;;;;;;;;;5050247;28;20476;-77
2021/05/02 05:45:19;;;;;;;0.63;0.63;;;;;;;;;;5050722;28;20033;-77
2021/05/02 05:47:49;;;;;;;0.90;0.50;;;;;;;;;;5050105;28;20550;-77
2021/05/02 05:50:15;;;;;;;0.88;0.55;;;;;;;;;;5050468;28;20059;-78
2021/05/02 05:52:42;;;;;;;0.57;0.57;;;;;;;;;;5050104;28;20499;-77
2021/05/02 05:55:08;;;;;;;0.73;0.70;;;;;;;;;;5050474;28;20041;-77
2021/05/02 05:57:34;;;;;;;0.98;0.63;;;;;;;;;;5050060;28;20047;-77
2021/05/02 06:00:00;;;;;;;0.80;0.80;;;;;;;;;;5049737;28;20036;-77
2021/05/02 06:02:26;;;;;;;0.77;0.77;;;;;;;;;;5050451;28;20125;-77
2021/05/02 06:04:53;;;;;;;0.57;0.45;;;;;;;;;;5049852;28;20029;-77
2021/05/02 06:07:19;;;;;;;0.77;0.77;;;;;;;;;;5049865;28;20487;-77
2021/05/02 06:09:45;;;;;;;0.77;0.77;;;;;;;;;;5049823;28;20486;-77
2021/05/02 06:12:11;;;;;;;0.50;0.50;;;;;;;;;;5050203;28;20519;-77
2021/05/02 06:14:37;;;;;;;0.75;0.75;;;;;;;;;;5049751;28;20508;-78
2021/05/02 06:17:03;;;;;;;0.38;0.38;;;;;;;;;;5050150;28;20036;-78
2021/05/02 06:19:29;;;;;;;1.80;0.80;;;;;;;;;;5050173;28;20029;-77
2021/05/02 06:21:55;;;;;;;0.73;0.52;;;;;;;;;;5049965;28;20040;-77
2021/05/02 06:24:21;;;;;;;0.70;0.70;;;;;;;;;;5050144;28;20025;-78
2021/05/02 06:26:47;;;;;;;1.00;0.70;;;;;;;;;;5050023;28;20109;-77
2021/05/02 06:29:13;;;;;;;1.30;1.17;;;;;;;;;;5050106;28;20064;-77
2021/05/02 06:31:40;;;;;;;0.43;0.43;;;;;;;;;;5049662;28;20444;-77
2021/05/02 06:34:06;;;;;;;0.30;0.30;;;;;;;;;;5049628;28;20029;-77
2021/05/02 06:36:32;;;;;;;1.30;0.63;;;;;;;;;;5049762;28;20032;-77
2021/05/02 06:38:58;;;;;;;0.40;0.40;;;;;;;;;;5049668;28;20087;-78
2021/05/02 06:41:24;;;;;;;0.40;0.40;;;;;;;;;;5049955;28;20124;-77
2021/05/02 06:43:50;;;;;;;0.90;0.68;;;;;;;;;;5049642;28;20033;-77
2021/05/02 06:46:29;;;;;;;0.77;0.70;;;;;;;;;;5050345;28;20424;-78
2021/05/02 06:48:56;;;;;;;0.52;0.52;;;;;;;;;;5049279;28;20028;-77
2021/05/02 06:51:23;;;;;;;0.85;0.80;;;;;;;;;;5052691;28;20236;-77
2021/05/02 06:53:49;;;;;;;0.90;0.88;;;;;;;;;;5053155;28;20025;-77
2021/05/02 06:56:15;;;;;;;0.55;0.35;;;;;;;;;;5053672;28;20395;-77
2021/05/02 06:58:41;;;;;;;0.60;0.55;;;;;;;;;;5052940;28;20124;-77
2021/05/02 07:01:07;;;;;;;1.33;0.95;;;;;;;;;;5053455;28;20037;-77
2021/05/02 07:03:33;;;;;;;0.60;0.50;;;;;;;;;;5053718;28;20108;-78
2021/05/02 07:06:00;;;;;;;0.60;0.60;;;;;;;;;;5052722;28;20028;-78
2021/05/02 07:08:26;;;;;;;0.90;0.80;;;;;;;;;;5053606;28;20407;-77
2021/05/02 07:10:53;;;;;;;0.95;0.60;;;;;;;;;;5052918;28;20418;-77
2021/05/02 07:13:19;;;;;;;0.82;0.82;;;;;;;;;;5053277;28;20055;-77
2021/05/02 07:15:45;;;;;;;0.75;0.70;;;;;;;;;;5053201;28;20033;-77
2021/05/02 07:18:11;;;;;;;1.55;0.90;;;;;;;;;;5053411;28;20052;-78
2021/05/02 07:20:37;;;;;;;0.60;0.50;;;;;;;;;;5052600;28;20116;-77
2021/05/02 07:23:03;;;;;;;0.85;0.75;;;;;;;;;;5053294;28;20033;-77
2021/05/02 07:25:29;;;;;;;0.50;0.50;;;;;;;;;;5053264;28;20025;-77
2021/05/02 07:27:55;;;;;;;1.80;0.63;;;;;;;;;;5052599;28;20411;-77
2021/05/02 07:30:22;;;;;;;0.80;0.60;;;;;;;;;;5052840;28;20102;-77
2021/05/02 07:32:49;;;;;;;0.50;0.50;;;;;;;;;;5052686;28;20067;-78
2021/05/02 07:35:15;;;;;;;0.50;0.50;;;;;;;;;;5052877;28;20032;-77
2021/05/02 07:37:41;;;;;;;0.75;0.70;;;;;;;;;;5052484;28;20100;-77
2021/05/02 07:40:08;;;;;;;0.60;0.60;;;;;;;;;;5052512;28;20028;-78
2021/05/02 07:42:35;;;;;;;1.25;1.10;;;;;;;;;;5052863;28;20086;-76
2021/05/02 07:45:01;;;;;;;0.70;0.55;;;;;;;;;;5052834;28;20033;-77
2021/05/02 07:47:27;;;;;;;0.63;0.60;;;;;;;;;;5053108;28;20025;-77
2021/05/02 07:49:53;;;;;;;1.52;0.73;;;;;;;;;;5052139;28;20440;-77
2021/05/02 07:52:19;;;;;;;0.95;0.85;;;;;;;;;;5052730;28;20017;-77
2021/05/02 07:54:45;;;;;;;0.60;0.60;;;;;;;;;;5052390;28;20103;-77
2021/05/02 07:57:11;;;;;;;1.00;1.00;;;;;;;;;;5052426;28;20113;-78
2021/05/02 07:59:38;;;;;;;0.70;0.60;;;;;;;;;;5051520;28;20032;-77
2021/05/02 08:02:11;;;;;;;0.60;0.60;;;;;;;;;;5049889;28;20344;-78
2021/05/02 08:04:40;;;;;;;0.95;0.88;;;;;;;;;;5051510;28;20025;-77
2021/05/02 08:07:07;;;;;;;0.80;0.70;;;;;;;;;;5051514;28;20514;-77
2021/05/02 08:09:33;;;;;;;0.50;0.50;;;;;;;;;;5051802;28;20044;-78
2021/05/02 08:11:59;;;;;;;0.80;0.80;;;;;;;;;;5051937;28;20033;-78
2021/05/02 08:14:26;;;;;;;1.17;0.93;;;;;;;;;;5051854;28;20514;-77
2021/05/02 08:16:52;;;;;;;0.70;0.70;;;;;;;;;;5051646;28;20442;-77
2021/05/02 08:19:18;;;;;;;0.85;0.55;;;;;;;;;;5051759;28;20056;-77
2021/05/02 08:21:44;;;;;;;0.80;0.70;;;;;;;;;;5051385;28;20037;-77
2021/05/02 08:24:12;;;;;;;0.55;0.55;;;;;;;;;;5051629;28;20061;-77
2021/05/02 08:26:38;;;;;;;0.85;0.85;;;;;;;;;;5051458;28;20574;-77
2021/05/02 08:29:04;;;;;;;1.60;1.50;;;;;;;;;;5051562;28;20389;-77
2021/05/02 08:31:30;;;;;;;1.20;1.13;;;;;;;;;;5051761;28;20024;-77
2021/05/02 08:33:56;;;;;;;0.93;0.88;;;;;;;;;;5051246;28;20029;-77
2021/05/02 08:36:22;;;;;;;1.13;1.02;;;;;;;;;;5051111;28;20126;-77
2021/05/02 08:38:49;;;;;;;1.30;1.20;;;;;;;;;;5051192;28;20373;-77
2021/05/02 08:41:15;;;;;;;1.00;1.00;;;;;;;;;;5051625;28;20037;-77
2021/05/02 08:43:42;;;;;;;0.63;0.63;;;;;;;;;;5051071;28;20090;-77
2021/05/02 08:46:12;;;;;;;1.08;0.98;;;;;;;;;;5051856;28;20052;-77
2021/05/02 08:48:38;;;;;;;0.90;0.90;;;;;;;;;;5051628;28;20029;-77
2021/05/02 08:51:04;;;;;;;0.52;0.52;;;;;;;;;;5051165;28;20209;-77
2021/05/02 08:53:30;;;;;;;1.10;0.80;;;;;;;;;;5051520;28;20037;-78
2021/05/02 08:55:56;;;;;;;0.88;0.70;;;;;;;;;;5051402;28;20534;-77
2021/05/02 08:58:24;;;;;;;0.93;0.93;;;;;;;;;;5051121;28;20530;-77
2021/05/02 09:00:51;;;;;;;0.85;0.73;;;;;;;;;;5050926;28;20029;-77
2021/05/02 09:03:17;;;;;;;0.65;0.65;;;;;;;;;;5051236;28;20103;-78
2021/05/02 09:05:47;;;;;;;1.17;0.75;;;;;;;;;;5050691;28;20059;-77
2021/05/02 09:08:40;;;;;;;0.70;0.70;;;;;;;;;;5051114;28;20039;-77
2021/05/02 09:11:06;;;;;;;3.20;0.70;;;;;;;;;;5049028;28;20040;-77
2021/05/02 09:13:32;;;;;;;0.75;0.75;;;;;;;;;;5051137;28;20033;-77
2021/05/02 09:16:02;;;;;;;0.75;0.75;;;;;;;;;;5050763;28;20032;-77
2021/05/02 09:18:34;;;;;;;0.70;0.70;;;;;;;;;;5051445;28;20375;-77
2021/05/02 09:21:00;;;;;;;0.85;0.43;;;;;;;;;;5050443;28;20037;-78
2021/05/02 09:23:34;;;;;;;1.00;0.93;;;;;;;;;;5050935;28;20082;-77
2021/05/02 09:26:00;;;;;;;1.48;0.93;;;;;;;;;;5051003;28;20032;-77
2021/05/02 09:28:43;;;;;;;1.20;0.60;;;;;;;;;;5050763;28;20104;-78
2021/05/02 09:31:11;;;;;;;0.95;0.85;;;;;;;;;;5050793;28;20033;-77
2021/05/02 09:33:37;;;;;;;0.88;0.73;;;;;;;;;;5050464;28;20357;-77
2021/05/02 09:36:07;;;;;;;0.98;0.90;;;;;;;;;;5050570;28;20087;-77
2021/05/02 09:38:33;;;;;;;0.45;0.45;;;;;;;;;;5050854;28;20136;-78
2021/05/02 09:41:00;;;;;;;1.33;1.23;;;;;;;;;;5049984;28;20539;-77
2021/05/02 09:43:30;;;;;;;1.17;0.90;;;;;;;;;;5050157;28;20044;-78
2021/05/02 09:46:32;;;;;;;0.73;0.65;;;;;;;;;;5050485;28;20032;-77
2021/05/02 09:49:13;;;;;;;0.70;0.70;;;;;;;;;;5049565;28;20562;-77
2021/05/02 09:51:40;;;;;;;0.77;0.77;;;;;;;;;;5050364;28;20124;-77
2021/05/02 09:54:10;;;;;;;0.52;0.52;;;;;;;;;;5050541;28;20070;-78
2021/05/02 09:56:38;;;;;;;0.57;0.57;;;;;;;;;;5050081;28;20029;-77
2021/05/02 09:59:05;;;;;;;0.80;0.80;;;;;;;;;;5050620;28;20040;-78
2021/05/02 10:01:31;;;;;;;1.08;0.80;;;;;;;;;;5050303;28;20039;-77
2021/05/02 10:04:00;;;;;;;0.65;0.50;;;;;;;;;;5050073;28;20491;-77
2021/05/02 10:06:35;;;;;;;1.38;1.27;;;;;;;;;;5049747;28;20361;-78
2021/05/02 10:09:06;;;;;;;1.50;0.50;;;;;;;;;;5050311;28;20554;-77
2021/05/02 10:11:33;;;;;;;1.48;0.60;;;;;;;;;;5050077;28;20033;-77
2021/05/02 10:13:59;;;;;;;0.52;0.52;;;;;;;;;;5050035;28;20033;-78
2021/05/02 10:16:25;;;;;;;1.20;1.10;;;;;;;;;;5050419;28;20021;-78
2021/05/02 10:18:52;;;;;;;2.63;0.82;;;;;;;;;;5050172;28;20467;-77
2021/05/02 10:21:18;;;;;;;0.80;0.80;;;;;;;;;;5050415;28;20037;-77
2021/05/02 10:23:45;;;;;;;0.60;0.60;;;;;;;;;;5049772;28;20028;-77
2021/05/02 10:26:11;;;;;;;0.68;0.68;;;;;;;;;;5053131;28;20032;-78
2021/05/02 10:28:38;;;;;;;0.73;0.73;;;;;;;;;;5054201;28;20112;-77
2021/05/02 10:31:05;;;;;;;0.65;0.57;;;;;;;;;;5053849;28;20032;-77
2021/05/02 10:33:38;;;;;;;0.50;0.50;;;;;;;;;;5054234;28;20033;-77
2021/05/02 10:36:09;;;;;;;0.52;0.52;;;;;;;;;;5053786;28;20055;-78
2021/05/02 10:38:55;;;;;;;0.40;0.40;;;;;;;;;;5053791;28;20043;-77
2021/05/02 10:41:25;;;;;;;1.08;1.02;;;;;;;;;;5046408;28;20049;-78
2021/05/02 10:43:52;;;;;;;0.50;0.50;;;;;;;;;;5053405;28;20039;-78
2021/05/02 10:46:37;;;;;;;0.50;0.50;;;;;;;;;;5053958;28;20475;-77
2021/05/02 10:49:03;;;;;;;0.60;0.60;;;;;;;;;;5053505;28;20569;-77
2021/05/02 10:51:30;;;;;;;0.50;0.50;;;;;;;;;;5053731;28;20040;-77
2021/05/02 10:54:03;;;;;;;0.60;0.60;;;;;;;;;;5053519;28;20029;-77
2021/05/02 10:56:45;;;;;;;0.98;0.68;;;;;;;;;;5053514;28;20075;-77
2021/05/02 10:59:12;;;;;;;0.50;0.50;;;;;;;;;;5053989;28;20240;-77
2021/05/02 11:01:38;;;;;;;0.90;0.80;;;;;;;;;;5053290;28;20045;-77
2021/05/02 11:04:04;;;;;;;0.60;0.60;;;;;;;;;;5053288;28;20545;-77
2021/05/02 11:06:39;;;;;;;0.40;0.40;;;;;;;;;;5053196;28;20049;-77
2021/05/02 11:09:11;;;;;;;0.57;0.57;;;;;;;;;;5053478;28;20487;-78
2021/05/02 11:11:39;;;;;;;0.85;0.70;;;;;;;;;;5053054;28;20071;-77
2021/05/02 11:14:08;;;;;;;0.55;0.55;;;;;;;;;;5053380;28;20536;-78
2021/05/02 11:16:37;;;;;;;1.65;0.90;;;;;;;;;;5053299;28;20021;-77
2021/05/02 11:19:04;;;;;;;0.82;0.60;;;;;;;;;;5053100;28;20104;-77
2021/05/02 11:21:49;;;;;;;1.77;0.95;;;;;;;;;;5053044;28;20033;-77
2021/05/02 11:24:16;;;;;;;0.60;0.60;;;;;;;;;;5052823;28;20036;-77
2021/05/02 11:29:23;;;;;;;0.60;0.60;;;;;;;;;;5053078;28;20305;-77
2021/05/02 11:31:49;;;;;;;0.65;0.65;;;;;;;;;;5052811;28;20108;-77
2021/05/02 11:34:15;;;;;;;0.60;0.40;;;;;;;;;;5052674;28;20574;-78
2021/05/02 11:36:42;;;;;;;0.50;0.50;;;;;;;;;;5051459;28;20037;-77
2021/05/02 11:39:27;;;;;;;0.65;0.65;;;;;;;;;;5052935;28;20032;-77
2021/05/02 11:42:01;;;;;;;2.55;1.00;;;;;;;;;;5052242;28;20080;-78
2021/05/02 11:44:27;;;;;;;0.82;0.82;;;;;;;;;;5052681;28;20036;-78
2021/05/02 11:46:53;;;;;;;1.00;0.93;;;;;;;;;;5052120;28;20063;-78
2021/05/02 11:49:19;;;;;;;1.52;0.60;;;;;;;;;;5052239;28;20025;-78
2021/05/02 11:51:55;;;;;;;0.90;0.90;;;;;;;;;;5052333;28;20087;-77
2021/05/02 11:54:22;;;;;;;0.80;0.68;;;;;;;;;;5052404;28;20028;-77
2021/05/02 11:56:51;;;;;;;0.65;0.65;;;;;;;;;;5052080;28;20048;-77
2021/05/02 11:59:17;;;;;;;0.73;0.60;;;;;;;;;;5052669;28;20479;-77
2021/05/02 12:01:46;;;;;;;1.63;0.65;;;;;;;;;;5051981;28;20025;-77
2021/05/02 12:04:15;;;;;;;0.60;0.60;;;;;;;;;;5052370;28;20160;-78
2021/05/02 12:06:41;;;;;;;1.02;0.98;;;;;;;;;;5051734;28;20020;-77
2021/05/02 12:09:18;;;;;;;0.60;0.60;;;;;;;;;;5052013;28;20221;-77
2021/05/02 12:11:45;;;;;;;0.55;0.52;;;;;;;;;;5051841;28;20043;-77
2021/05/02 12:14:31;;;;;;;0.57;0.57;;;;;;;;;;5052080;28;20035;-77
2021/05/02 12:16:59;;;;;;;0.70;0.70;;;;;;;;;;5051605;28;20025;-77
2021/05/02 12:19:36;;;;;;;0.50;0.50;;;;;;;;;;5051834;28;20110;-77
2021/05/02 12:22:03;;;;;;;0.40;0.40;;;;;;;;;;5051921;28;20128;-77
2021/05/02 12:24:32;;;;;;;0.85;0.80;;;;;;;;;;5052301;28;20486;-78
2021/05/02 12:27:03;;;;;;;3.63;0.65;;;;;;;;;;5051788;28;20036;-77
2021/05/02 12:29:31;;;;;;;0.50;0.50;;;;;;;;;;5052208;28;20029;-78
2021/05/02 12:32:06;;;;;;;0.68;0.68;;;;;;;;;;5051395;28;20028;-78
2021/05/02 12:34:34;;;;;;;1.08;1.08;;;;;;;;;;5051844;28;20040;-77
2021/05/02 12:37:12;;;;;;;0.60;0.45;;;;;;;;;;5051449;28;20036;-78
2021/05/02 12:39:38;;;;;;;0.55;0.50;;;;;;;;;;5051488;28;20043;-77
2021/05/02 12:42:05;;;;;;;0.60;0.60;;;;;;;;;;5051512;28;20060;-77
2021/05/02 12:44:31;;;;;;;0.57;0.50;;;;;;;;;;5051568;28;20033;-78
2021/05/02 12:47:01;;;;;;;0.55;0.50;;;;;;;;;;5051153;28;20033;-77
2021/05/02 12:49:27;;;;;;;0.38;0.38;;;;;;;;;;5050785;28;20021;-78
2021/05/02 12:51:55;;;;;;;2.28;0.90;;;;;;;;;;5051275;28;20213;-77
2021/05/02 12:54:25;;;;;;;0.40;0.40;;;;;;;;;;5051124;28;20407;-77
2021/05/02 12:57:02;;;;;;;0.60;0.60;;;;;;;;;;5050692;28;20041;-77
2021/05/02 12:59:33;;;;;;;0.50;0.50;;;;;;;;;;5051069;28;20071;-78
2021/05/02 13:02:09;;;;;;;0.50;0.50;;;;;;;;;;5051010;28;20091;-77
2021/05/02 13:04:44;;;;;;;0.80;0.80;;;;;;;;;;5051008;28;20025;-78
2021/05/02 13:07:10;;;;;;;1.83;0.45;;;;;;;;;;5051145;28;20597;-77
2021/05/02 13:09:44;;;;;;;0.65;0.60;;;;;;;;;;5051145;28;20526;-77
2021/05/02 13:12:10;;;;;;;;;;;;;;;;;;5051486;28;20391;-77
2021/05/02 13:14:36;;;;;;;1.15;0.70;;;;;;;;;;5050111;28;19904;-78
2021/05/02 13:17:08;;;;;;;0.68;0.68;;;;;;;;;;5050331;28;20584;-78
2021/05/02 13:19:37;;;;;;;0.60;0.60;;;;;;;;;;5050511;28;20052;-78
2021/05/02 13:22:13;;;;;;;0.70;0.70;;;;;;;;;;5030759;28;20033;-78
2021/05/02 13:24:59;;;;;;;0.40;0.40;;;;;;;;;;5030727;28;20022;-77
2021/05/02 13:27:36;;;;;;;0.55;0.52;;;;;;;;;;5017374;28;20103;-77
2021/05/02 13:30:03;;;;;;;0.50;0.50;;;;;;;;;;5030426;28;20098;-77
2021/05/02 13:32:29;;;;;;;0.50;0.50;;;;;;;;;;5031212;28;20022;-78
2021/05/02 13:34:55;;;;;;;0.47;0.40;;;;;;;;;;5030741;28;20067;-77
2021/05/02 13:37:21;;;;;;;0.70;0.70;;;;;;;;;;5030516;28;20221;-77
2021/05/02 13:39:47;;;;;;;1.00;0.90;;;;;;;;;;5030459;28;20029;-77
2021/05/02 13:42:13;;;;;;;0.70;0.70;;;;;;;;;;5030805;28;20484;-78
2021/05/02 13:44:40;;;;;;;0.90;0.90;;;;;;;;;;5030503;28;20443;-77
2021/05/02 13:47:06;;;;;;;0.50;0.50;;;;;;;;;;5030669;28;20029;-77
2021/05/02 13:49:32;;;;;;;0.90;0.50;;;;;;;;;;5030690;28;20040;-77
2021/05/02 13:51:59;;;;;;;0.60;0.60;;;;;;;;;;5030331;28;20033;-78
2021/05/02 13:54:25;;;;;;;0.50;0.50;;;;;;;;;;5030711;28;20026;-78
2021/05/02 13:56:51;;;;;;;0.60;0.60;;;;;;;;;;5029767;28;20060;-77
2021/05/02 13:59:17;;;;;;;0.73;0.68;;;;;;;;;;5030179;28;20073;-78
2021/05/02 14:01:43;;;;;;;0.60;0.60;;;;;;;;;;5029487;28;20124;-77
2021/05/02 14:04:09;;;;;;;0.75;0.75;;;;;;;;;;5029120;28;20033;-77
2021/05/02 14:06:35;;;;;;;0.65;0.63;;;;;;;;;;5032567;28;20060;-77
2021/05/02 14:09:01;;;;;;;0.70;0.70;;;;;;;;;;5047930;28;20033;-77
2021/05/02 14:11:28;;;;;;;0.68;0.50;;;;;;;;;;5048256;28;20031;-77
2021/05/02 14:13:54;;;;;;;0.90;0.90;;;;;;;;;;5047455;28;20033;-77
2021/05/02 14:16:21;;;;;;;0.88;0.80;;;;;;;;;;5048396;28;20067;-78
2021/05/02 14:18:47;;;;;;;1.05;0.80;;;;;;;;;;5048080;28;20029;-78
2021/05/02 14:21:13;;;;;;;0.88;0.88;;;;;;;;;;5047959;28;20163;-77
2021/05/02 14:23:39;;;;;;;0.65;0.55;;;;;;;;;;5048085;28;20113;-77
2021/05/02 14:26:06;;;;;;;0.85;0.85;;;;;;;;;;5047759;28;20036;-78
2021/05/02 14:28:32;;;;;;;0.73;0.60;;;;;;;;;;5048726;28;20503;-77
2021/05/02 14:30:59;;;;;;;1.58;0.90;;;;;;;;;;5046866;28;20116;-77
2021/05/02 14:33:25;;;;;;;0.60;0.60;;;;;;;;;;5047779;28;20566;-77
2021/05/02 14:35:51;;;;;;;0.98;0.93;;;;;;;;;;5046882;28;20119;-77
2021/05/02 14:38:17;;;;;;;0.90;0.80;;;;;;;;;;5047820;28;20043;-77
2021/05/02 14:40:44;;;;;;;1.20;0.90;;;;;;;;;;5047772;28;20029;-77
2021/05/02 14:43:10;;;;;;;1.13;0.88;;;;;;;;;;5048136;28;20033;-77
2021/05/02 14:45:37;;;;;;;0.80;0.80;;;;;;;;;;5048263;28;20060;-77
2021/05/02 14:48:03;;;;;;;0.65;0.65;;;;;;;;;;5047604;28;20021;-77
2021/05/02 14:50:29;;;;;;;0.60;0.57;;;;;;;;;;5047135;28;20093;-77
2021/05/02 14:52:56;;;;;;;0.82;0.82;;;;;;;;;;5047003;28;20029;-77